MET6438 - Manchester to Geneva

Boeing 737-800
G-FLII - Fly UK
1 hr 35 mins
537 nm
Fly UK Codeshare - SU | M | W | F

Departure

Departing from
Manchester (MAN)
Departure gate
Scheduled Departure
GMT 1515
Local 1515
METAR EGCC 170220Z AUTO VRB03KT 9999 -RA OVC007 06/05 Q1032 TEMPO SCT007
TAF TAF AMD EGCC 170026Z 1700/1806 18004KT 9999 SCT004 TEMPO 1700/1714 3000 BR BKN002 PROB30 TEMPO 1700/1710 RADZ PROB30 TEMPO 1714/1720 8000 BKN010 PROB30 TEMPO 1722/1806 1200 RA BKN001
  • No charts available

Arrival

Arriving at
Geneva (GVA)
Arrival gate
15
Scheduled Arrival
GMT 1650
Local 1750
METAR LSGG 170220Z AUTO 03024G43KT 9999 BKN023 M03/M09 Q1020 NOSIG
TAF TAF LSGG 162325Z 1700/1806 04020G30KT 9999 SCT030 TXM03/1715Z TNM05/1706Z TNM05/1806Z TEMPO 1702/1800 05025G40KT

Route Map

Planning Resources

EGCC UTELA CLM BRY LAULY TUNOR DJL KOVAR PAS LSGG
EGCC EG74 LSH ABB DIJ LSGG
SANBA UN859 HON UL10 BPK N601 DET UL6 DVR UL9 KONAN UL607 KOK UM150 DIK UN852 MOROK UZ24 AKITO
LIST2Y LISTO L612 HON UL15 FINMA UM605 WOD UL612 BOGNA L612 BENBO UL612 OGULO UQ223 LUSAR LUSA1N
SANB1Y SANBA UN859 HON UL612 OGULO UQ223 LUSAR LUSA1N
Route:
OFP Layout:
Units:
Detailed Navlog:
ETOPS Planning:
Plan Stepclimbs:
Runway Analysis:
Include NOTAMS:
FIR NOTAMS:
Flight Maps:

Return Flights

MET6439 (Operated by Fly UK)
Boeing 737-800
1720 GMT

Popularity

Hub Current Bids PiReps this month Total PiReps
KMCI 0 0 1
KLAX 0 0 2
KBOS 0 0 0